createdAt,value
2018-10-19T00:02:06.887Z,7.23
2018-10-19T00:07:10.270Z,6.43
2018-10-19T00:12:13.609Z,6.63
2018-10-19T00:17:17.085Z,7.00
2018-10-19T00:22:20.275Z,5.97
2018-10-19T00:27:23.614Z,6.27
2018-10-19T00:32:26.943Z,6.80
2018-10-19T00:37:30.298Z,6.43
2018-10-19T00:42:33.687Z,7.43
2018-10-19T00:47:37.034Z,6.20
2018-10-19T00:52:40.405Z,6.43
2018-10-19T00:57:43.745Z,5.97
2018-10-19T01:02:47.069Z,6.70
2018-10-19T01:07:50.390Z,6.23
2018-10-19T01:12:57.253Z,6.90
2018-10-19T01:18:00.755Z,6.27
2018-10-19T01:23:04.222Z,5.67
2018-10-19T01:28:07.545Z,5.73
2018-10-19T01:33:10.944Z,5.87
2018-10-19T01:38:14.258Z,5.83
2018-10-19T01:43:17.662Z,6.83
2018-10-19T01:48:21.014Z,5.37
2018-10-19T01:53:24.355Z,5.30
2018-10-19T01:58:27.744Z,4.97
2018-10-19T02:03:31.069Z,5.00
2018-10-19T02:08:34.417Z,4.67
2018-10-19T02:13:37.777Z,4.27
2018-10-19T02:18:41.154Z,4.53
2018-10-19T02:23:44.526Z,4.40
2018-10-19T02:28:47.855Z,4.17
2018-10-19T02:33:51.178Z,3.80
2018-10-19T02:38:54.572Z,4.37
2018-10-19T02:43:58.182Z,4.17
2018-10-19T02:49:01.536Z,3.97
2018-10-19T02:54:05.377Z,3.27
2018-10-19T02:59:08.812Z,4.07
2018-10-19T03:04:12.180Z,3.87
2018-10-19T03:09:15.741Z,3.77
2018-10-19T03:14:18.948Z,3.20
2018-10-19T03:19:22.266Z,3.30
2018-10-19T03:24:25.694Z,2.83
2018-10-19T03:29:29.040Z,2.93
2018-10-19T03:34:32.395Z,3.10
2018-10-19T03:39:35.694Z,3.20
2018-10-19T03:44:39.062Z,2.57
2018-10-19T03:49:42.384Z,2.90
2018-10-19T03:54:45.729Z,4.70
2018-10-19T03:59:49.063Z,4.20
2018-10-19T04:04:52.435Z,2.60
2018-10-19T04:09:55.778Z,2.60
2018-10-19T04:14:59.130Z,2.50
2018-10-19T04:20:02.461Z,2.47
2018-10-19T04:25:06.632Z,2.87
2018-10-19T04:30:09.962Z,2.90
2018-10-19T04:35:13.311Z,2.40
2018-10-19T04:40:20.874Z,2.58
2018-10-19T04:45:24.251Z,3.00
2018-10-19T04:50:27.604Z,2.70
2018-10-19T04:55:30.915Z,2.20
2018-10-19T05:00:34.217Z,3.47
2018-10-19T05:05:37.524Z,2.77
2018-10-19T05:10:40.843Z,2.50
2018-10-19T05:15:44.347Z,2.50
2018-10-19T05:20:47.715Z,2.97
2018-10-19T05:25:51.037Z,3.07
2018-10-19T05:30:54.378Z,2.93
2018-10-19T05:35:57.694Z,3.50
2018-10-19T05:41:01.124Z,6.17
2018-10-19T05:46:04.429Z,3.93
2018-10-19T05:51:07.955Z,3.93
2018-10-19T05:56:11.768Z,4.93
2018-10-19T06:01:15.120Z,5.37
2018-10-19T06:06:18.665Z,6.17
2018-10-19T06:11:23.445Z,7.20
2018-10-19T06:16:27.213Z,7.00
2018-10-19T06:21:30.855Z,6.43
2018-10-19T06:26:34.227Z,6.53
2018-10-19T06:31:37.507Z,6.27
2018-10-19T06:36:40.831Z,6.70
2018-10-19T06:41:44.155Z,6.80
2018-10-19T06:46:47.604Z,7.37
2018-10-19T06:51:50.888Z,7.57
2018-10-19T06:56:54.218Z,6.50
2018-10-19T07:01:57.602Z,6.10
2018-10-19T07:07:00.982Z,7.77
2018-10-19T07:12:04.388Z,6.30
2018-10-19T07:17:07.778Z,6.53
2018-10-19T07:22:11.184Z,6.30
2018-10-19T07:27:14.558Z,5.97
2018-10-19T07:32:17.909Z,5.67
2018-10-19T07:37:21.231Z,5.57
2018-10-19T07:42:24.778Z,4.90
2018-10-19T07:47:28.072Z,5.03
2018-10-19T07:52:31.438Z,4.57
2018-10-19T07:57:34.773Z,4.10
2018-10-19T08:02:38.167Z,4.43
2018-10-19T08:07:41.581Z,4.07
2018-10-19T08:12:44.928Z,4.03
2018-10-19T08:17:48.275Z,4.30
2018-10-19T08:22:51.635Z,4.00
2018-10-19T08:27:54.953Z,3.97
2018-10-19T08:32:58.298Z,4.20
2018-10-19T08:38:01.678Z,4.50
2018-10-19T08:43:05.326Z,4.27
2018-10-19T08:48:08.629Z,3.70
2018-10-19T08:53:12.011Z,3.87
2018-10-19T08:58:15.328Z,4.00
2018-10-19T09:03:18.654Z,4.37
2018-10-19T09:08:22.084Z,4.17
2018-10-19T09:13:25.438Z,3.80
2018-10-19T09:18:29.084Z,4.10
2018-10-19T09:23:34.560Z,3.93
2018-10-19T09:28:38.885Z,4.33
2018-10-19T09:33:42.953Z,3.90
2018-10-19T09:38:46.776Z,4.20
2018-10-19T09:43:52.174Z,3.50
2018-10-19T09:48:56.342Z,4.37
2018-10-19T09:54:03.568Z,4.00
2018-10-19T09:59:09.176Z,3.83
2018-10-19T10:04:13.160Z,3.77
2018-10-19T10:09:20.128Z,3.87
2018-10-19T10:14:24.126Z,3.87
2018-10-19T10:19:31.444Z,3.90
2018-10-19T10:24:35.154Z,4.13
2018-10-19T10:29:39.714Z,4.00
2018-10-19T10:51:11.414Z,3.63
2018-10-19T10:56:14.984Z,3.33
2018-10-19T11:01:18.490Z,3.63
2018-10-19T11:06:21.818Z,3.30
2018-10-19T11:11:25.347Z,3.70
2018-10-19T11:16:29.673Z,3.50
2018-10-19T11:21:33.251Z,3.73
2018-10-19T11:26:36.688Z,3.70
2018-10-19T11:31:40.132Z,3.30
2018-10-19T11:36:43.569Z,3.13
2018-10-19T11:41:47.014Z,3.80
2018-10-19T11:46:50.328Z,3.33
2018-10-19T11:51:53.870Z,3.13
2018-10-19T11:56:57.349Z,3.60
2018-10-19T12:02:00.666Z,3.10
2018-10-19T12:07:04.446Z,3.47
2018-10-19T12:12:07.925Z,3.80
2018-10-19T12:17:11.335Z,3.23
2018-10-19T12:22:14.694Z,3.43
2018-10-19T12:27:18.222Z,3.27
2018-10-19T12:32:21.631Z,3.40
2018-10-19T12:37:25.073Z,2.33
2018-10-19T12:42:28.578Z,2.13
2018-10-19T12:47:38.882Z,2.47
2018-10-19T12:52:42.303Z,1.67
2018-10-19T12:57:45.600Z,1.73
2018-10-19T13:02:48.946Z,1.80
2018-10-19T13:07:52.308Z,1.67
2018-10-19T13:12:55.625Z,1.80
2018-10-19T13:17:59.067Z,1.80
2018-10-19T13:23:02.396Z,2.00
2018-10-19T13:28:06.125Z,1.83
2018-10-19T13:33:10.794Z,5.53
2018-10-19T13:38:14.179Z,1.80
2018-10-19T13:43:17.564Z,1.90
2018-10-19T13:48:21.814Z,2.17
2018-10-19T13:53:25.264Z,2.23
2018-10-19T13:58:28.829Z,1.87
2018-10-19T14:03:32.202Z,1.67
2018-10-19T14:08:35.530Z,1.80
2018-10-19T14:13:39.203Z,4.17
2018-10-19T14:18:42.587Z,3.00
2018-10-19T14:23:46.025Z,2.43
2018-10-19T14:28:49.418Z,2.07
2018-10-19T14:33:53.853Z,2.27
2018-10-19T14:38:57.321Z,10.37
2018-10-19T14:44:00.640Z,1.87
2018-10-19T14:49:04.101Z,2.03
2018-10-19T14:54:07.358Z,2.00
2018-10-19T14:59:10.823Z,2.03
2018-10-19T15:04:14.858Z,1.83
2018-10-19T15:09:18.354Z,1.57
2018-10-19T15:14:22.010Z,3.30
2018-10-19T15:19:25.431Z,1.93
2018-10-19T15:24:28.770Z,1.63
2018-10-19T15:29:32.224Z,2.13
2018-10-19T15:34:35.499Z,1.73
2018-10-19T15:39:38.867Z,1.57
2018-10-19T15:44:42.322Z,1.93
2018-10-19T15:49:45.667Z,1.60
2018-10-19T15:54:49.084Z,4.37
2018-10-19T15:59:52.511Z,1.60
2018-10-19T16:04:56.023Z,2.03
2018-10-19T16:09:59.684Z,1.83
2018-10-19T16:15:03.747Z,1.70
2018-10-19T16:20:09.356Z,2.17
2018-10-19T16:25:13.013Z,3.35
2018-10-19T16:30:16.494Z,2.50
2018-10-19T16:35:20.189Z,2.33
2018-10-19T16:40:23.750Z,2.45
2018-10-19T16:45:27.076Z,2.00
2018-10-19T16:50:30.397Z,2.80
2018-10-19T16:55:33.756Z,3.10
2018-10-19T17:00:37.104Z,4.00
2018-10-19T17:05:40.438Z,4.73
2018-10-19T17:10:43.839Z,3.40
2018-10-19T17:15:47.250Z,4.27
2018-10-19T17:20:50.612Z,4.83
2018-10-19T17:25:53.935Z,4.20
2018-10-19T17:30:57.518Z,4.10
2018-10-19T17:36:01.132Z,4.67
2018-10-19T17:41:04.775Z,3.73
2018-10-19T17:46:08.136Z,3.73
2018-10-19T17:51:11.589Z,4.43
2018-10-19T17:56:14.919Z,4.63
2018-10-19T18:01:19.636Z,4.60
2018-10-19T18:06:23.039Z,5.53
2018-10-19T18:11:26.549Z,5.80
2018-10-19T18:16:29.977Z,5.60
2018-10-19T18:21:33.537Z,5.53
2018-10-19T18:26:36.891Z,5.67
2018-10-19T18:31:40.337Z,5.67
2018-10-19T18:36:43.825Z,4.73
2018-10-19T18:41:47.577Z,5.10
2018-10-19T18:46:51.160Z,7.00
2018-10-19T18:51:54.597Z,5.13
2018-10-19T18:56:58.028Z,4.00
2018-10-19T19:02:01.385Z,3.07
2018-10-19T19:07:04.720Z,2.90
2018-10-19T19:12:08.075Z,2.53
2018-10-19T19:17:11.469Z,2.72
2018-10-19T19:22:14.900Z,2.63
2018-10-19T19:27:18.240Z,3.10
2018-10-19T19:32:21.766Z,2.63
2018-10-19T19:37:25.150Z,2.77
2018-10-19T19:42:33.775Z,2.57
2018-10-19T19:47:42.414Z,2.87
2018-10-19T19:52:45.703Z,3.37
2018-10-19T19:57:49.021Z,3.53
2018-10-19T20:02:52.669Z,3.43
2018-10-19T20:07:55.942Z,4.43
2018-10-19T20:12:59.245Z,4.87
2018-10-19T20:18:03.212Z,3.20
2018-10-19T20:23:07.145Z,4.10
2018-10-19T20:28:10.638Z,4.57
2018-10-19T20:33:13.938Z,4.50
2018-10-19T20:38:17.351Z,3.90
2018-10-19T20:43:20.858Z,5.17
2018-10-19T20:48:24.164Z,5.03
2018-10-19T20:53:27.456Z,4.60
2018-10-19T20:58:30.815Z,4.77
2018-10-19T21:03:34.108Z,4.63
2018-10-19T21:08:37.467Z,6.60
2018-10-19T21:13:40.814Z,5.60
2018-10-19T21:18:44.085Z,6.03
2018-10-19T21:23:47.386Z,7.53
2018-10-19T21:28:50.770Z,6.50
2018-10-19T21:33:54.178Z,5.77
2018-10-19T21:38:57.609Z,5.17
2018-10-19T21:44:01.055Z,4.20
2018-10-19T21:49:04.364Z,4.30
2018-10-19T21:54:07.741Z,4.13
2018-10-19T21:59:11.673Z,4.75
2018-10-19T22:04:15.072Z,5.10
2018-10-19T22:09:18.552Z,5.20
2018-10-19T22:14:21.897Z,6.20
2018-10-19T22:19:25.193Z,5.60
2018-10-19T22:24:28.659Z,5.43
2018-10-19T22:29:32.048Z,5.13
2018-10-19T22:34:35.392Z,6.03
2018-10-19T22:39:38.780Z,6.23
2018-10-19T22:44:42.116Z,5.13
2018-10-19T22:49:45.451Z,5.20
2018-10-19T22:54:48.754Z,6.03
2018-10-19T22:59:52.119Z,5.57
2018-10-19T23:04:55.452Z,5.50
2018-10-19T23:09:58.793Z,5.40
2018-10-19T23:15:02.458Z,4.73
2018-10-19T23:20:07.930Z,3.87
2018-10-19T23:25:11.304Z,4.40
2018-10-19T23:30:14.615Z,4.30
2018-10-19T23:35:18.260Z,4.40
2018-10-19T23:40:21.851Z,4.72
2018-10-19T23:45:25.379Z,4.67
2018-10-19T23:50:28.809Z,4.57
2018-10-19T23:55:32.220Z,5.27
